Time;durP1;ratioP1;P1;durP2;ratioP2;P2;SDS_P1;SDS_P2;PMS_P1;PMS_P2;Temp;Humidity;BMP_temperature;BMP_pressure;BME280_temperature;BME280_humidity;BME280_pressure;Samples;Min_cycle;Max_cycle;Signal;HPM_P1;HPM_P2
2022/03/17 00:02:03;;;;;;;6.47;4.03;;;;;;;;;;5049965;28;20052;-62
2022/03/17 00:04:30;;;;;;;8.02;4.50;;;;;;;;;;5054689;28;20021;-59
2022/03/17 00:06:57;;;;;;;7.13;4.50;;;;;;;;;;5054536;28;20013;-60
2022/03/17 00:09:23;;;;;;;7.00;4.10;;;;;;;;;;5054608;28;20029;-62
2022/03/17 00:11:49;;;;;;;7.03;4.30;;;;;;;;;;5054483;28;20075;-62
2022/03/17 00:14:15;;;;;;;5.90;3.65;;;;;;;;;;5054697;28;20032;-62
2022/03/17 00:16:41;;;;;;;6.88;3.88;;;;;;;;;;5054589;28;20071;-63
2022/03/17 00:19:10;;;;;;;8.07;4.30;;;;;;;;;;5052299;28;20021;-60
2022/03/17 00:21:37;;;;;;;7.38;4.43;;;;;;;;;;5039516;28;20033;-60
2022/03/17 00:24:03;;;;;;;7.03;4.28;;;;;;;;;;5035678;28;20040;-60
2022/03/17 00:26:29;;;;;;;7.90;4.72;;;;;;;;;;5054716;28;20052;-62
2022/03/17 00:28:55;;;;;;;8.90;4.15;;;;;;;;;;5054478;28;20025;-60
2022/03/17 00:31:22;;;;;;;8.38;4.90;;;;;;;;;;5054338;28;20471;-61
2022/03/17 00:33:48;;;;;;;7.32;4.55;;;;;;;;;;5054613;28;20025;-61
2022/03/17 00:36:14;;;;;;;7.25;4.75;;;;;;;;;;5054577;28;20056;-62
2022/03/17 00:38:40;;;;;;;7.18;4.10;;;;;;;;;;5054451;28;20104;-63
2022/03/17 00:41:06;;;;;;;9.98;4.82;;;;;;;;;;5054647;28;20099;-62
2022/03/17 00:43:34;;;;;;;7.57;4.60;;;;;;;;;;5054321;28;20032;-63
2022/03/17 00:46:01;;;;;;;8.30;4.72;;;;;;;;;;5053336;28;20499;-62
2022/03/17 00:48:27;;;;;;;7.60;4.43;;;;;;;;;;5054264;28;20136;-62
2022/03/17 00:50:53;;;;;;;7.30;4.43;;;;;;;;;;5054391;28;20029;-62
2022/03/17 00:53:19;;;;;;;7.85;4.80;;;;;;;;;;5054232;28;20028;-62
2022/03/17 00:55:45;;;;;;;8.77;4.88;;;;;;;;;;5041599;28;20061;-62
2022/03/17 00:58:11;;;;;;;11.70;4.78;;;;;;;;;;5038580;28;20049;-62
2022/03/17 01:00:38;;;;;;;15.20;4.38;;;;;;;;;;5039534;28;20105;-63
2022/03/17 01:03:05;;;;;;;8.27;4.70;;;;;;;;;;5034004;28;20075;-62
2022/03/17 01:05:31;;;;;;;10.98;5.10;;;;;;;;;;5034546;28;20021;-62
2022/03/17 01:07:57;;;;;;;10.45;5.10;;;;;;;;;;5034625;28;20381;-63
2022/03/17 01:10:24;;;;;;;9.32;5.47;;;;;;;;;;5034965;28;20029;-62
2022/03/17 01:12:50;;;;;;;11.27;5.00;;;;;;;;;;5033506;28;20095;-62
2022/03/17 01:15:17;;;;;;;9.63;5.07;;;;;;;;;;5033762;28;20029;-61
2022/03/17 01:17:44;;;;;;;7.88;4.32;;;;;;;;;;5032943;28;20069;-62
2022/03/17 01:20:11;;;;;;;10.40;5.30;;;;;;;;;;5033333;28;20017;-62
2022/03/17 01:22:37;;;;;;;9.60;6.05;;;;;;;;;;5033451;28;20021;-62
2022/03/17 01:25:03;;;;;;;8.55;5.35;;;;;;;;;;5048605;28;20025;-62
2022/03/17 01:27:29;;;;;;;8.05;5.07;;;;;;;;;;5033572;28;20087;-62
2022/03/17 01:29:56;;;;;;;9.10;5.72;;;;;;;;;;5035908;28;20178;-62
2022/03/17 01:32:22;;;;;;;11.75;5.75;;;;;;;;;;5032953;28;20473;-60
2022/03/17 01:34:49;;;;;;;9.32;5.07;;;;;;;;;;5032749;28;20487;-62
2022/03/17 01:37:15;;;;;;;8.43;5.30;;;;;;;;;;5032612;28;20041;-61
2022/03/17 01:39:41;;;;;;;10.07;5.28;;;;;;;;;;5032963;28;20026;-62
2022/03/17 01:42:09;;;;;;;12.07;5.68;;;;;;;;;;5033447;28;20053;-62
2022/03/17 01:44:35;;;;;;;8.18;5.25;;;;;;;;;;5033246;28;20067;-62
2022/03/17 01:49:46;;;;;;;10.27;5.28;;;;;;;;;;5041594;28;20530;-61
2022/03/17 01:52:13;;;;;;;9.13;5.60;;;;;;;;;;5037025;28;20028;-62
2022/03/17 01:54:39;;;;;;;9.50;5.60;;;;;;;;;;5032824;28;20022;-62
2022/03/17 01:57:06;;;;;;;8.20;4.95;;;;;;;;;;5032465;28;20453;-62
2022/03/17 01:59:33;;;;;;;9.20;5.35;;;;;;;;;;5033093;28;20033;-63
2022/03/17 02:01:59;;;;;;;10.80;6.30;;;;;;;;;;5032787;28;20025;-62
2022/03/17 02:04:25;;;;;;;12.18;6.20;;;;;;;;;;5032708;28;20025;-63
2022/03/17 02:06:51;;;;;;;10.38;6.70;;;;;;;;;;5032517;28;20064;-63
2022/03/17 02:09:19;;;;;;;9.38;5.88;;;;;;;;;;5041766;28;20067;-63
2022/03/17 02:14:34;;;;;;;9.65;5.78;;;;;;;;;;5032782;28;20095;-62
2022/03/17 02:17:01;;;;;;;9.95;5.63;;;;;;;;;;5031267;28;20053;-62
2022/03/17 02:19:27;;;;;;;9.27;5.35;;;;;;;;;;5032468;28;20025;-62
2022/03/17 02:21:53;;;;;;;11.50;6.45;;;;;;;;;;5032557;28;20100;-62
2022/03/17 02:27:04;;;;;;;8.85;6.13;;;;;;;;;;5035420;28;20121;-61
2022/03/17 02:29:31;;;;;;;9.85;5.68;;;;;;;;;;5031108;28;20025;-61
2022/03/17 02:31:58;;;;;;;8.48;5.75;;;;;;;;;;5032202;28;20487;-62
2022/03/17 02:34:24;;;;;;;9.13;6.15;;;;;;;;;;5032323;28;20022;-62
2022/03/17 02:36:51;;;;;;;8.35;5.57;;;;;;;;;;5032053;28;20439;-61
2022/03/17 02:39:17;;;;;;;10.20;5.95;;;;;;;;;;5032252;28;20495;-61
2022/03/17 02:41:44;;;;;;;10.77;6.22;;;;;;;;;;5031090;28;20550;-61
2022/03/17 02:44:10;;;;;;;10.50;6.70;;;;;;;;;;5030921;28;20048;-62
2022/03/17 02:46:36;;;;;;;9.32;6.05;;;;;;;;;;5034567;28;20079;-62
2022/03/17 02:49:03;;;;;;;9.05;5.75;;;;;;;;;;5031922;28;20143;-62
2022/03/17 02:51:29;;;;;;;11.20;6.97;;;;;;;;;;5030642;28;20021;-62
2022/03/17 02:53:55;;;;;;;11.05;6.13;;;;;;;;;;5032102;28;20086;-62
2022/03/17 02:56:21;;;;;;;11.38;6.68;;;;;;;;;;5030428;28;20061;-61
2022/03/17 02:58:47;;;;;;;12.60;5.93;;;;;;;;;;5031347;28;20072;-62
2022/03/17 03:01:14;;;;;;;8.40;5.60;;;;;;;;;;5040010;28;20021;-62
2022/03/17 03:03:40;;;;;;;9.13;5.57;;;;;;;;;;5051438;28;20028;-63
2022/03/17 03:06:06;;;;;;;10.95;6.93;;;;;;;;;;5051634;28;20096;-63
2022/03/17 03:08:34;;;;;;;7.95;5.68;;;;;;;;;;5051511;28;20021;-63
2022/03/17 03:11:00;;;;;;;10.25;6.20;;;;;;;;;;5051172;28;20368;-63
2022/03/17 03:13:26;;;;;;;9.77;6.38;;;;;;;;;;5051390;28;20021;-64
2022/03/17 03:15:52;;;;;;;10.68;6.47;;;;;;;;;;5066634;28;20590;-63
2022/03/17 03:18:19;;;;;;;9.77;6.13;;;;;;;;;;5051265;28;20037;-64
2022/03/17 03:20:45;;;;;;;11.50;6.35;;;;;;;;;;5051529;28;20033;-63
2022/03/17 03:23:11;;;;;;;13.02;7.22;;;;;;;;;;5051250;28;20098;-63
2022/03/17 03:25:38;;;;;;;13.52;6.68;;;;;;;;;;5051446;28;20025;-63
2022/03/17 03:28:07;;;;;;;10.57;5.95;;;;;;;;;;5051204;28;20013;-64
2022/03/17 03:30:33;;;;;;;9.35;6.30;;;;;;;;;;5051263;28;20065;-64
2022/03/17 03:33:01;;;;;;;11.88;6.72;;;;;;;;;;5051223;28;20048;-64
2022/03/17 03:38:11;;;;;;;13.45;6.65;;;;;;;;;;5055493;28;20044;-63
2022/03/17 03:40:37;;;;;;;12.07;7.80;;;;;;;;;;5055365;28;20035;-63
2022/03/17 03:43:03;;;;;;;10.57;6.82;;;;;;;;;;5055165;28;20104;-64
2022/03/17 03:45:29;;;;;;;10.60;6.63;;;;;;;;;;5055235;28;20096;-63
2022/03/17 03:47:55;;;;;;;11.65;7.18;;;;;;;;;;5055012;28;20025;-63
2022/03/17 03:50:22;;;;;;;9.45;6.60;;;;;;;;;;5055071;28;20013;-63
2022/03/17 03:52:48;;;;;;;12.13;8.05;;;;;;;;;;5055060;28;20025;-64
2022/03/17 03:55:14;;;;;;;11.13;6.85;;;;;;;;;;5055063;28;20027;-63
2022/03/17 03:57:40;;;;;;;11.18;6.72;;;;;;;;;;5054611;28;20053;-63
2022/03/17 04:02:51;;;;;;;12.77;7.07;;;;;;;;;;5055338;28;20112;-63
2022/03/17 04:05:19;;;;;;;10.30;7.15;;;;;;;;;;5054832;28;20024;-62
2022/03/17 04:07:46;;;;;;;11.38;7.15;;;;;;;;;;5055019;28;20013;-63
2022/03/17 04:10:12;;;;;;;12.38;7.78;;;;;;;;;;5054984;28;20044;-63
2022/03/17 04:12:38;;;;;;;12.18;7.45;;;;;;;;;;5054697;28;20439;-63
2022/03/17 04:15:04;;;;;;;11.52;6.55;;;;;;;;;;5054868;28;20032;-63
2022/03/17 04:17:30;;;;;;;11.68;7.97;;;;;;;;;;5054698;28;20037;-63
2022/03/17 04:19:56;;;;;;;12.60;7.63;;;;;;;;;;5054561;28;20021;-63
2022/03/17 04:22:23;;;;;;;10.13;6.00;;;;;;;;;;5054701;28;20025;-63
2022/03/17 04:24:49;;;;;;;10.57;7.10;;;;;;;;;;5054634;28;20021;-63
2022/03/17 04:27:15;;;;;;;11.90;7.63;;;;;;;;;;5054192;28;20032;-63
2022/03/17 04:29:41;;;;;;;11.75;7.03;;;;;;;;;;5054594;28;20029;-62
2022/03/17 04:32:09;;;;;;;11.63;7.60;;;;;;;;;;5038082;28;20028;-64
2022/03/17 04:34:35;;;;;;;9.30;6.40;;;;;;;;;;5051080;28;20021;-62
2022/03/17 04:37:01;;;;;;;10.00;6.57;;;;;;;;;;5054514;28;20033;-64
2022/03/17 04:39:27;;;;;;;12.98;8.23;;;;;;;;;;5054567;28;20025;-63
2022/03/17 04:41:53;;;;;;;10.85;6.85;;;;;;;;;;5054431;28;20071;-62
2022/03/17 04:44:19;;;;;;;11.15;6.32;;;;;;;;;;5054406;28;20028;-63
2022/03/17 04:46:46;;;;;;;11.27;7.57;;;;;;;;;;5054189;28;20135;-63
2022/03/17 04:49:12;;;;;;;11.90;7.70;;;;;;;;;;5054141;28;20020;-63
2022/03/17 04:51:38;;;;;;;10.65;7.38;;;;;;;;;;5069749;28;20554;-63
2022/03/17 04:54:06;;;;;;;12.60;7.10;;;;;;;;;;5054462;28;20028;-63
2022/03/17 04:56:32;;;;;;;11.20;7.10;;;;;;;;;;5054048;28;20029;-63
2022/03/17 04:58:58;;;;;;;10.85;7.53;;;;;;;;;;5053845;28;20186;-63
2022/03/17 05:01:24;;;;;;;12.00;8.10;;;;;;;;;;5054032;28;20032;-62
2022/03/17 05:03:50;;;;;;;11.82;7.93;;;;;;;;;;5054602;28;20112;-63
2022/03/17 05:06:16;;;;;;;11.32;6.53;;;;;;;;;;5054044;28;20472;-62
2022/03/17 05:08:43;;;;;;;12.65;7.07;;;;;;;;;;5053773;28;20028;-61
2022/03/17 05:11:10;;;;;;;17.67;8.07;;;;;;;;;;5053905;28;20079;-63
2022/03/17 05:13:37;;;;;;;16.13;8.20;;;;;;;;;;5054147;28;20026;-63
2022/03/17 05:16:07;;;;;;;15.23;7.35;;;;;;;;;;5053887;28;20096;-63
2022/03/17 05:18:33;;;;;;;15.60;7.35;;;;;;;;;;5054087;28;20171;-63
2022/03/17 05:20:59;;;;;;;16.92;7.53;;;;;;;;;;5054154;28;20096;-64
2022/03/17 05:23:25;;;;;;;15.82;7.80;;;;;;;;;;5053804;28;20024;-64
2022/03/17 05:25:52;;;;;;;11.00;7.10;;;;;;;;;;5053840;28;20051;-64
2022/03/17 05:28:18;;;;;;;12.40;7.50;;;;;;;;;;5053647;28;20055;-64
2022/03/17 05:30:45;;;;;;;14.18;7.45;;;;;;;;;;5053462;28;20021;-63
2022/03/17 05:33:11;;;;;;;12.23;8.15;;;;;;;;;;5053607;28;20056;-64
2022/03/17 05:35:38;;;;;;;12.23;7.10;;;;;;;;;;5053582;28;20024;-63
2022/03/17 05:38:04;;;;;;;12.10;6.82;;;;;;;;;;5053398;28;20037;-62
2022/03/17 05:40:30;;;;;;;11.27;6.78;;;;;;;;;;5053516;28;20025;-63
2022/03/17 05:42:58;;;;;;;14.93;6.68;;;;;;;;;;5053185;28;20469;-63
2022/03/17 05:45:26;;;;;;;13.02;7.10;;;;;;;;;;5053182;28;20068;-63
2022/03/17 05:47:53;;;;;;;11.68;7.03;;;;;;;;;;5053039;28;20017;-64
2022/03/17 05:50:20;;;;;;;11.82;7.00;;;;;;;;;;5053132;28;20040;-62
2022/03/17 05:52:47;;;;;;;13.95;7.80;;;;;;;;;;5051831;28;20219;-62
2022/03/17 05:55:14;;;;;;;14.68;7.40;;;;;;;;;;5053168;28;20104;-62
2022/03/17 05:57:41;;;;;;;16.20;7.40;;;;;;;;;;5052137;28;20052;-62
2022/03/17 06:00:08;;;;;;;11.02;7.50;;;;;;;;;;5052989;28;20464;-63
2022/03/17 06:02:35;;;;;;;11.93;6.78;;;;;;;;;;5052802;28;20043;-63
2022/03/17 06:05:01;;;;;;;13.52;7.38;;;;;;;;;;5052777;28;20091;-64
2022/03/17 06:07:36;;;;;;;12.50;7.45;;;;;;;;;;5052491;28;20501;-63
2022/03/17 06:10:02;;;;;;;13.40;7.20;;;;;;;;;;5052588;28;20021;-65
2022/03/17 06:12:28;;;;;;;14.60;7.50;;;;;;;;;;5052673;28;20029;-65
2022/03/17 06:14:54;;;;;;;14.50;7.43;;;;;;;;;;5053041;28;20021;-64
2022/03/17 06:17:20;;;;;;;14.38;6.88;;;;;;;;;;5052472;28;20075;-64
2022/03/17 06:19:47;;;;;;;13.00;7.78;;;;;;;;;;5052635;28;20036;-64
2022/03/17 06:22:13;;;;;;;13.43;7.80;;;;;;;;;;5052407;28;20064;-63
2022/03/17 06:24:39;;;;;;;12.23;7.63;;;;;;;;;;5052110;28;20021;-62
2022/03/17 06:27:05;;;;;;;14.57;7.55;;;;;;;;;;5051884;28;20025;-64
2022/03/17 06:29:31;;;;;;;13.93;8.23;;;;;;;;;;5052056;28;20032;-63
2022/03/17 06:31:57;;;;;;;16.08;8.27;;;;;;;;;;5040810;28;20388;-63
2022/03/17 06:34:23;;;;;;;12.95;7.00;;;;;;;;;;5053708;28;20053;-63
2022/03/17 06:36:49;;;;;;;15.50;7.95;;;;;;;;;;5032251;28;20033;-63
2022/03/17 06:39:15;;;;;;;12.65;8.23;;;;;;;;;;5032376;28;20029;-63
2022/03/17 06:41:41;;;;;;;16.25;7.88;;;;;;;;;;5032294;28;20029;-63
2022/03/17 06:44:07;;;;;;;16.05;8.45;;;;;;;;;;5047569;28;20103;-62
2022/03/17 06:46:33;;;;;;;11.60;7.65;;;;;;;;;;5032281;28;20014;-63
2022/03/17 06:48:59;;;;;;;12.55;7.57;;;;;;;;;;5031814;28;20029;-63
2022/03/17 06:51:25;;;;;;;13.70;8.13;;;;;;;;;;5031938;28;20049;-64
2022/03/17 06:53:52;;;;;;;11.00;8.05;;;;;;;;;;5036023;28;20030;-63
2022/03/17 06:56:19;;;;;;;15.90;8.90;;;;;;;;;;5046368;28;20032;-64
2022/03/17 06:58:45;;;;;;;14.00;8.68;;;;;;;;;;5050156;28;20087;-64
2022/03/17 07:01:11;;;;;;;12.25;8.10;;;;;;;;;;5031854;28;20104;-63
2022/03/17 07:03:37;;;;;;;14.23;8.25;;;;;;;;;;5031529;28;20028;-64
2022/03/17 07:06:03;;;;;;;17.50;9.32;;;;;;;;;;5031871;28;20026;-63
2022/03/17 07:08:29;;;;;;;16.85;8.60;;;;;;;;;;5047282;28;20033;-63
2022/03/17 07:10:55;;;;;;;13.05;8.15;;;;;;;;;;5032590;28;20029;-63
2022/03/17 07:13:21;;;;;;;14.68;8.55;;;;;;;;;;5051803;28;20017;-63
2022/03/17 07:15:48;;;;;;;16.42;8.32;;;;;;;;;;5051674;28;20049;-63
2022/03/17 07:18:14;;;;;;;14.23;8.30;;;;;;;;;;5066792;28;20068;-63
2022/03/17 07:20:40;;;;;;;11.23;7.32;;;;;;;;;;5067071;28;20074;-63
2022/03/17 07:23:06;;;;;;;14.02;9.13;;;;;;;;;;5051658;28;20032;-62
2022/03/17 07:25:32;;;;;;;17.25;8.55;;;;;;;;;;5051573;28;20461;-62
2022/03/17 07:27:58;;;;;;;18.92;8.55;;;;;;;;;;5051244;28;20484;-61
2022/03/17 07:30:26;;;;;;;19.92;8.60;;;;;;;;;;5051274;28;20017;-63
2022/03/17 07:32:55;;;;;;;14.38;8.35;;;;;;;;;;5051238;28;20029;-63
2022/03/17 07:35:22;;;;;;;18.65;9.77;;;;;;;;;;5051083;28;20079;-62
2022/03/17 07:37:49;;;;;;;13.35;8.38;;;;;;;;;;5051065;28;20037;-62
2022/03/17 07:40:16;;;;;;;35.03;11.98;;;;;;;;;;5051346;28;20025;-62
2022/03/17 07:42:42;;;;;;;17.27;8.27;;;;;;;;;;5051440;28;20112;-63
2022/03/17 07:45:08;;;;;;;16.63;9.18;;;;;;;;;;5066637;28;20029;-63
2022/03/17 07:47:34;;;;;;;16.08;8.95;;;;;;;;;;5049022;28;20029;-62
2022/03/17 07:50:01;;;;;;;13.70;8.70;;;;;;;;;;5031226;28;20037;-63
2022/03/17 07:52:27;;;;;;;15.32;9.73;;;;;;;;;;5031527;28;20025;-63
2022/03/17 07:54:53;;;;;;;19.42;9.48;;;;;;;;;;5031478;28;20017;-62
2022/03/17 07:57:19;;;;;;;14.85;10.55;;;;;;;;;;5030030;28;20083;-62
2022/03/17 07:59:46;;;;;;;18.35;10.10;;;;;;;;;;5031582;28;20551;-62
2022/03/17 08:02:12;;;;;;;17.17;9.98;;;;;;;;;;5042457;28;20124;-62
2022/03/17 08:04:38;;;;;;;15.32;9.00;;;;;;;;;;5050650;28;20017;-62
2022/03/17 08:07:04;;;;;;;19.15;11.10;;;;;;;;;;5051180;28;20036;-64
2022/03/17 08:09:31;;;;;;;16.60;10.80;;;;;;;;;;5051218;28;20476;-63
2022/03/17 08:11:57;;;;;;;15.68;9.50;;;;;;;;;;5051402;28;20156;-61
2022/03/17 08:14:23;;;;;;;13.45;9.18;;;;;;;;;;5050913;28;20021;-63
2022/03/17 08:16:49;;;;;;;14.60;10.13;;;;;;;;;;5035891;28;20028;-63
2022/03/17 08:19:15;;;;;;;16.30;9.73;;;;;;;;;;5031034;28;20025;-64
2022/03/17 08:21:42;;;;;;;15.88;9.15;;;;;;;;;;5032748;28;20110;-63
2022/03/17 08:24:08;;;;;;;17.48;10.10;;;;;;;;;;5034765;28;20025;-64
2022/03/17 08:26:37;;;;;;;15.32;8.52;;;;;;;;;;5034594;28;20370;-64
2022/03/17 08:29:04;;;;;;;31.90;10.02;;;;;;;;;;5034445;28;20017;-64
2022/03/17 08:31:31;;;;;;;16.63;10.13;;;;;;;;;;5034416;28;20037;-62
2022/03/17 08:33:57;;;;;;;15.50;10.32;;;;;;;;;;5034138;28;20026;-63
2022/03/17 08:36:23;;;;;;;13.15;8.82;;;;;;;;;;5034083;28;20415;-63
2022/03/17 08:38:51;;;;;;;16.65;10.70;;;;;;;;;;5033947;28;20500;-62
2022/03/17 08:41:17;;;;;;;14.93;8.65;;;;;;;;;;5032944;28;20113;-64
2022/03/17 08:43:43;;;;;;;13.43;8.73;;;;;;;;;;5036696;28;20026;-63
2022/03/17 08:51:38;;;;;;;13.40;8.20;;;;;;;;;;5053855;28;20482;-64
2022/03/17 08:54:04;;;;;;;16.58;10.07;;;;;;;;;;5053722;28;20028;-63
2022/03/17 08:56:32;;;;;;;15.10;9.52;;;;;;;;;;5053792;28;20096;-63
2022/03/17 08:58:59;;;;;;;16.10;10.70;;;;;;;;;;5053701;28;20705;-62
2022/03/17 09:01:25;;;;;;;14.77;9.57;;;;;;;;;;5053844;28;20029;-64
2022/03/17 09:03:52;;;;;;;15.68;9.90;;;;;;;;;;5052142;28;20037;-62
2022/03/17 09:06:20;;;;;;;16.50;10.13;;;;;;;;;;5053788;28;20051;-64
2022/03/17 09:08:46;;;;;;;20.52;11.13;;;;;;;;;;5054048;28;20087;-62
2022/03/17 09:11:13;;;;;;;18.70;10.32;;;;;;;;;;5053975;28;20021;-63
2022/03/17 09:13:39;;;;;;;19.23;9.43;;;;;;;;;;5047537;28;20100;-64
2022/03/17 09:16:06;;;;;;;18.52;10.38;;;;;;;;;;5053341;28;20029;-62
2022/03/17 09:18:32;;;;;;;15.25;8.82;;;;;;;;;;5051371;28;20033;-62
2022/03/17 09:21:00;;;;;;;19.52;10.98;;;;;;;;;;5052027;28;20064;-62
2022/03/17 09:23:26;;;;;;;16.48;10.45;;;;;;;;;;5051396;28;20075;-62
2022/03/17 09:25:53;;;;;;;17.60;9.98;;;;;;;;;;5052597;28;20074;-61
2022/03/17 09:28:19;;;;;;;18.40;9.95;;;;;;;;;;5052551;28;20048;-63
2022/03/17 09:30:45;;;;;;;19.88;10.63;;;;;;;;;;5052662;28;20037;-65
2022/03/17 09:33:11;;;;;;;20.95;10.75;;;;;;;;;;5051894;28;20021;-65
2022/03/17 09:35:37;;;;;;;21.83;10.20;;;;;;;;;;5052913;28;20029;-64
2022/03/17 09:38:07;;;;;;;20.65;11.18;;;;;;;;;;5052765;28;20029;-64
2022/03/17 09:40:35;;;;;;;16.15;10.20;;;;;;;;;;5052983;28;20465;-62
2022/03/17 09:43:21;;;;;;;19.95;11.05;;;;;;;;;;5052630;28;20039;-63
2022/03/17 09:45:50;;;;;;;17.77;10.20;;;;;;;;;;5052690;28;20373;-62
2022/03/17 09:48:17;;;;;;;17.63;9.88;;;;;;;;;;5052379;28;20021;-63
2022/03/17 09:50:45;;;;;;;15.90;10.43;;;;;;;;;;5052467;28;20017;-62
2022/03/17 09:53:11;;;;;;;19.23;10.98;;;;;;;;;;5052499;28;20024;-64
2022/03/17 09:55:43;;;;;;;17.25;10.68;;;;;;;;;;5052533;28;20029;-64
2022/03/17 09:58:10;;;;;;;16.77;10.50;;;;;;;;;;5052249;28;20044;-64
2022/03/17 10:00:48;;;;;;;20.88;11.02;;;;;;;;;;5052143;28;20107;-64
2022/03/17 10:03:18;;;;;;;22.20;10.85;;;;;;;;;;5049904;28;20025;-62
2022/03/17 10:05:48;;;;;;;22.45;11.27;;;;;;;;;;5039804;28;20065;-64
2022/03/17 10:08:14;;;;;;;20.42;10.60;;;;;;;;;;5038766;28;20021;-64
2022/03/17 10:10:41;;;;;;;19.73;11.48;;;;;;;;;;5052087;28;20025;-63
2022/03/17 10:13:11;;;;;;;24.75;11.85;;;;;;;;;;5051267;28;20021;-63
2022/03/17 10:15:37;;;;;;;23.98;12.50;;;;;;;;;;5049802;28;20476;-63
2022/03/17 10:18:19;;;;;;;23.88;11.68;;;;;;;;;;5036210;28;20037;-64
2022/03/17 10:20:46;;;;;;;22.70;12.98;;;;;;;;;;5049639;28;20036;-64
2022/03/17 10:23:12;;;;;;;19.02;11.40;;;;;;;;;;5051106;28;20023;-64
2022/03/17 10:25:38;;;;;;;21.98;12.05;;;;;;;;;;5050520;28;20048;-63
2022/03/17 10:28:07;;;;;;;19.05;11.35;;;;;;;;;;5051454;28;20028;-62
2022/03/17 10:30:35;;;;;;;22.45;13.15;;;;;;;;;;5051466;28;20127;-65
2022/03/17 10:33:03;;;;;;;22.52;12.77;;;;;;;;;;5039109;28;20037;-64
2022/03/17 10:35:36;;;;;;;20.85;12.07;;;;;;;;;;5048078;28;20025;-64
2022/03/17 10:38:09;;;;;;;21.25;11.98;;;;;;;;;;5034396;28;20029;-64
2022/03/17 10:40:35;;;;;;;22.67;11.52;;;;;;;;;;5042007;28;20018;-61
2022/03/17 10:43:24;;;;;;;23.70;12.10;;;;;;;;;;5043367;28;20029;-65
2022/03/17 10:46:15;;;;;;;21.88;13.35;;;;;;;;;;5035019;28;20594;-63
2022/03/17 10:49:00;;;;;;;20.55;13.43;;;;;;;;;;5036191;28;20183;-64
2022/03/17 10:51:36;;;;;;;19.45;12.68;;;;;;;;;;5047400;28;20092;-64
2022/03/17 10:54:08;;;;;;;24.38;14.05;;;;;;;;;;5036309;28;20464;-65
2022/03/17 10:56:35;;;;;;;25.83;12.02;;;;;;;;;;5049731;28;20028;-62
2022/03/17 10:59:01;;;;;;;21.48;11.32;;;;;;;;;;5049783;28;20081;-62
2022/03/17 11:01:37;;;;;;;22.75;12.10;;;;;;;;;;5044544;28;20036;-63
2022/03/17 11:04:04;;;;;;;24.15;12.82;;;;;;;;;;5044137;28;20126;-63
2022/03/17 11:06:30;;;;;;;20.50;12.63;;;;;;;;;;5051146;28;20519;-63
2022/03/17 11:09:00;;;;;;;20.92;13.13;;;;;;;;;;5051189;28;20443;-63
2022/03/17 11:11:27;;;;;;;23.15;13.45;;;;;;;;;;5041280;28;20423;-63
2022/03/17 11:13:53;;;;;;;20.40;12.55;;;;;;;;;;5042558;28;20021;-63
2022/03/17 11:16:21;;;;;;;18.93;12.50;;;;;;;;;;5035594;28;20057;-63
2022/03/17 11:18:48;;;;;;;20.50;12.93;;;;;;;;;;5049948;28;20320;-64
2022/03/17 11:21:21;;;;;;;20.52;13.10;;;;;;;;;;5051286;28;20025;-64
2022/03/17 11:23:55;;;;;;;19.27;12.05;;;;;;;;;;5040120;28;20036;-64
2022/03/17 11:26:23;;;;;;;20.85;12.57;;;;;;;;;;5045489;28;20115;-64
2022/03/17 11:28:49;;;;;;;19.75;11.40;;;;;;;;;;5034574;28;20051;-64
2022/03/17 11:31:19;;;;;;;20.13;11.70;;;;;;;;;;5044349;28;20048;-63
2022/03/17 11:33:46;;;;;;;19.15;11.50;;;;;;;;;;5041727;28;20557;-63
2022/03/17 11:36:16;;;;;;;17.15;11.27;;;;;;;;;;5036568;28;20083;-63
2022/03/17 11:39:02;;;;;;;22.20;12.20;;;;;;;;;;5047618;28;20037;-63
2022/03/17 11:41:31;;;;;;;18.77;11.20;;;;;;;;;;5037638;28;20013;-63
2022/03/17 11:43:57;;;;;;;18.02;11.68;;;;;;;;;;5038302;28;20026;-63
2022/03/17 11:46:35;;;;;;;16.55;11.77;;;;;;;;;;5046463;28;20029;-63
2022/03/17 11:49:17;;;;;;;20.10;11.85;;;;;;;;;;5035481;28;20083;-63
2022/03/17 11:51:52;;;;;;;21.77;11.90;;;;;;;;;;5049246;28;20102;-63
2022/03/17 11:54:18;;;;;;;16.42;11.52;;;;;;;;;;5035519;28;20272;-63
2022/03/17 11:56:45;;;;;;;18.98;11.25;;;;;;;;;;5051559;28;20120;-62
2022/03/17 11:59:16;;;;;;;16.60;11.15;;;;;;;;;;5047171;28;20131;-63
2022/03/17 12:01:46;;;;;;;23.00;13.50;;;;;;;;;;5044754;28;20464;-62
2022/03/17 12:04:31;;;;;;;18.73;12.02;;;;;;;;;;5040002;28;20029;-63
2022/03/17 12:07:07;;;;;;;20.33;11.50;;;;;;;;;;5038679;28;20021;-63
2022/03/17 12:09:35;;;;;;;19.30;11.75;;;;;;;;;;5054432;28;20503;-63
2022/03/17 12:12:01;;;;;;;16.25;10.88;;;;;;;;;;5041647;28;20021;-62
2022/03/17 12:14:28;;;;;;;18.27;11.80;;;;;;;;;;5051008;28;20021;-62
2022/03/17 12:16:59;;;;;;;18.73;11.18;;;;;;;;;;5052089;28;20078;-63
2022/03/17 12:19:25;;;;;;;21.30;11.82;;;;;;;;;;5054693;28;20518;-63
2022/03/17 12:22:04;;;;;;;20.50;11.02;;;;;;;;;;5055010;28;20024;-62
2022/03/17 12:24:33;;;;;;;28.02;12.77;;;;;;;;;;5054006;28;20017;-63
2022/03/17 12:27:05;;;;;;;20.88;11.55;;;;;;;;;;5054575;28;20028;-63
2022/03/17 12:29:31;;;;;;;19.70;11.02;;;;;;;;;;5054771;28;20024;-64
2022/03/17 12:32:03;;;;;;;21.95;12.00;;;;;;;;;;5054476;28;20036;-63
2022/03/17 12:34:29;;;;;;;18.95;11.30;;;;;;;;;;5067343;28;20028;-65
2022/03/17 12:36:55;;;;;;;20.88;11.15;;;;;;;;;;5053155;28;20045;-63
2022/03/17 12:39:28;;;;;;;16.17;11.13;;;;;;;;;;5053780;28;20056;-64
2022/03/17 12:41:55;;;;;;;17.42;10.45;;;;;;;;;;5054350;28;20017;-62
2022/03/17 12:44:24;;;;;;;22.20;11.38;;;;;;;;;;5054139;28;20021;-64
2022/03/17 12:46:51;;;;;;;18.60;11.18;;;;;;;;;;5046730;28;20036;-64
2022/03/17 12:49:19;;;;;;;19.98;11.15;;;;;;;;;;5053126;28;20013;-63
2022/03/17 12:51:45;;;;;;;19.25;11.60;;;;;;;;;;5052262;28;20032;-62
2022/03/17 12:54:13;;;;;;;21.27;11.05;;;;;;;;;;5044410;28;20021;-65
2022/03/17 12:56:46;;;;;;;25.95;12.60;;;;;;;;;;5052759;28;20053;-63
2022/03/17 12:59:12;;;;;;;16.98;10.57;;;;;;;;;;5053040;28;20504;-63
2022/03/17 13:01:41;;;;;;;23.45;11.68;;;;;;;;;;5053057;28;20100;-63
2022/03/17 13:04:07;;;;;;;18.90;12.27;;;;;;;;;;5053302;28;20545;-61
2022/03/17 13:09:18;;;;;;;18.40;12.10;;;;;;;;;;5053122;28;20083;-61
2022/03/17 13:14:39;;;;;;;16.42;10.43;;;;;;;;;;5029232;28;20029;-60
2022/03/17 13:17:05;;;;;;;17.50;11.07;;;;;;;;;;5053057;28;20033;-60
2022/03/17 13:19:42;;;;;;;16.80;10.90;;;;;;;;;;5053001;28;20586;-61
2022/03/17 13:22:09;;;;;;;19.35;11.35;;;;;;;;;;5052930;28;20025;-60
2022/03/17 13:24:35;;;;;;;19.67;11.32;;;;;;;;;;5052809;28;20029;-60
2022/03/17 13:27:01;;;;;;;19.27;11.07;;;;;;;;;;5052904;28;20392;-65
2022/03/17 13:29:27;;;;;;;18.30;11.73;;;;;;;;;;5052841;28;20021;-63
2022/03/17 13:31:53;;;;;;;19.20;11.48;;;;;;;;;;5052970;28;20036;-62
2022/03/17 13:34:29;;;;;;;19.40;10.82;;;;;;;;;;5052773;28;20043;-61
2022/03/17 13:36:59;;;;;;;19.38;12.25;;;;;;;;;;5052603;28;20128;-63
2022/03/17 13:39:35;;;;;;;17.33;11.30;;;;;;;;;;5047310;28;20032;-64
2022/03/17 13:42:05;;;;;;;17.50;11.80;;;;;;;;;;5043332;28;20017;-60
2022/03/17 13:44:52;;;;;;;18.80;11.10;;;;;;;;;;5049603;28;20411;-62
2022/03/17 13:47:24;;;;;;;17.60;10.57;;;;;;;;;;5050761;28;20017;-60
2022/03/17 13:50:09;;;;;;;16.63;10.60;;;;;;;;;;5049211;28;20075;-63
2022/03/17 13:52:35;;;;;;;16.92;11.13;;;;;;;;;;5050760;28;20029;-64
2022/03/17 13:55:01;;;;;;;19.02;11.88;;;;;;;;;;5050545;28;20124;-64
2022/03/17 13:57:27;;;;;;;19.20;11.60;;;;;;;;;;5050902;28;20032;-63
2022/03/17 13:59:53;;;;;;;20.98;11.18;;;;;;;;;;5043919;28;20037;-65
2022/03/17 14:02:22;;;;;;;22.05;11.95;;;;;;;;;;5050431;28;20020;-61
2022/03/17 14:04:55;;;;;;;20.05;11.30;;;;;;;;;;5040945;28;20025;-65
2022/03/17 14:07:21;;;;;;;18.67;10.85;;;;;;;;;;5036146;28;20023;-65
2022/03/17 14:09:47;;;;;;;23.15;11.85;;;;;;;;;;5050477;28;20027;-64
2022/03/17 14:12:13;;;;;;;17.27;10.82;;;;;;;;;;5045424;28;20036;-63
2022/03/17 14:14:39;;;;;;;19.40;10.80;;;;;;;;;;5051630;28;20025;-65
2022/03/17 14:17:09;;;;;;;19.63;11.45;;;;;;;;;;5040799;28;20129;-62
2022/03/17 14:19:35;;;;;;;14.63;10.70;;;;;;;;;;5044995;28;20010;-62
2022/03/17 14:24:46;;;;;;;17.15;9.73;;;;;;;;;;5040686;28;20040;-64
2022/03/17 14:27:12;;;;;;;20.15;10.98;;;;;;;;;;5051235;28;20017;-61
2022/03/17 14:29:38;;;;;;;19.27;10.55;;;;;;;;;;5051395;28;20035;-62
2022/03/17 14:32:05;;;;;;;17.63;10.80;;;;;;;;;;5050168;28;20028;-64
2022/03/17 14:34:31;;;;;;;15.68;11.18;;;;;;;;;;5040585;28;20035;-65
2022/03/17 14:36:57;;;;;;;17.20;9.85;;;;;;;;;;5048131;28;20456;-65
2022/03/17 14:39:23;;;;;;;15.27;10.20;;;;;;;;;;5044186;28;20036;-64
2022/03/17 14:41:52;;;;;;;14.68;9.43;;;;;;;;;;5043440;28;20095;-62
2022/03/17 14:44:18;;;;;;;15.23;10.45;;;;;;;;;;5051142;28;20448;-63
2022/03/17 14:46:44;;;;;;;15.85;10.50;;;;;;;;;;5049726;28;20039;-63
2022/03/17 14:49:10;;;;;;;17.60;11.00;;;;;;;;;;5042890;28;20041;-64
2022/03/17 14:51:40;;;;;;;13.88;9.57;;;;;;;;;;5042860;28;20028;-64
2022/03/17 14:54:07;;;;;;;16.55;10.43;;;;;;;;;;5036367;28;20522;-61
2022/03/17 14:56:33;;;;;;;14.43;9.85;;;;;;;;;;5050505;28;20017;-64